Kaministiqua — CFN4612 — position and weather

sailwx.info

Track history (hours):
 
Tides and Currents Weather Stations Pressure Air Temp Water Temp Dewpoint Dewpoint Depression Visibility Wind Speed Wind Dir Waves Ship Positions

Kaministiqua

Last reported at 2017-Jul-18 12:10 UTC. Time now 2017-Jul-20 22:26 UTC.
Position N 45°14' W 074°14'.

Length 223 m; draft 7.9 m.

Type: Ship. MMSI: 316009457.

Date/timePositionNaut miles runAvg speedWind from/ knotsBaromVisibWave heightAir tempDewpointWater temp
2017-Jul-18 12:10N 45°14' W 074°14'8 8.8
2017-Jul-18 11:15N 45°13' W 074°02'2 8.3
2017-Jul-18 11:00N 45°14' W 073°60'4 8.4
2017-Jul-18 10:30N 45°18' W 073°56'1 1.6
2017-Jul-18 10:01N 45°18' W 073°56'1 1.7
2017-Jul-18 09:31N 45°19' W 073°55'0 0.7
2017-Jul-18 09:00N 45°19' W 073°55'0 0.1
2017-Jul-18 08:31N 45°19' W 073°55'3 5.0
2017-Jul-18 08:01N 45°21' W 073°52'5 9.6
2017-Jul-18 07:30N 45°24' W 073°47'4 7.7
2017-Jul-18 07:00N 45°25' W 073°42'3 5.0
2017-Jul-18 06:30N 45°24' W 073°38'2 4.7
2017-Jul-18 06:01N 45°24' W 073°35'1 1.3
2017-Jul-18 05:31N 45°24' W 073°34'1 1.8
2017-Jul-18 05:01N 45°24' W 073°33'3 4.9
2017-Jul-18 04:28N 45°26' W 073°30'3 5.6
2017-Jul-18 03:54N 45°30' W 073°31'  
2017-Jul-15 15:50N 45°30' W 073°31'1 0.8
2017-Jul-15 15:12N 45°30' W 073°31'2 3.1
2017-Jul-15 14:35N 45°28' W 073°30'3 5.6
2017-Jul-15 13:58N 45°25' W 073°32'1 3.0
2017-Jul-15 13:31N 45°24' W 073°34'0 0.5
2017-Jul-15 13:00N 45°24' W 073°34'0 0.6
2017-Jul-15 12:29N 45°24' W 073°35'1 1.6
2017-Jul-15 12:00N 45°24' W 073°36'2 3.8
2017-Jul-15 11:30N 45°24' W 073°38'3 5.2
2017-Jul-15 11:00N 45°25' W 073°42'4 8.4
2017-Jul-15 10:30N 45°24' W 073°48'612.1
2017-Jul-15 10:00N 45°20' W 073°54'1 2.0
2017-Jul-15 09:30N 45°19' W 073°55'1 1.4
2017-Jul-15 09:00N 45°18' W 073°56'0 0.3
2017-Jul-15 08:31N 45°18' W 073°56'1 1.0
2017-Jul-15 08:00N 45°18' W 073°56'3 4.6
2017-Jul-15 07:25N 45°15' W 073°58'3 8.0
2017-Jul-15 07:00N 45°13' W 074°02'510.1
2017-Jul-15 06:30N 45°14' W 074°09'  
2017-Jul-12 07:05N 44°34' W 082°44'112.2
2017-Jul-12 07:00N 44°35' W 082°44'612.2
2017-Jul-12 06:30N 44°41' W 082°47'612.3
2017-Jul-12 06:00N 44°47' W 082°50'612.1
2017-Jul-12 05:30N 44°52' W 082°52'612.1
2017-Jul-12 05:01N 44°58' W 082°55'712.2
2017-Jul-12 04:28N 45°04' W 082°58'1112.4
2017-Jul-12 03:34N 45°15' W 083°03'112.5
2017-Jul-12 03:30N 45°16' W 083°04'612.2
2017-Jul-12 03:01N 45°21' W 083°07'612.3
2017-Jul-12 02:30N 45°26' W 083°13'612.3
2017-Jul-12 02:00N 45°31' W 083°19'612.2
2017-Jul-12 01:30N 45°35' W 083°24'612.0
2017-Jul-12 01:00N 45°39' W 083°30'611.9
2017-Jul-12 00:30N 45°44' W 083°36'612.0
2017-Jul-12 00:00N 45°48' W 083°42'612.1
2017-Jul-11 23:30N 45°52' W 083°48'611.4
2017-Jul-11 23:00N 45°57' W 083°54'510.5
2017-Jul-11 22:30N 46°02' W 083°55'510.6
2017-Jul-11 22:00N 46°05' W 084°01'80 7.8
2017-Jul-11 11:50N 46°59' W 085°27'412.3
2017-Jul-11 11:30N 47°01' W 085°32'1412.2
2017-Jul-11 10:20N 47°07' W 085°51'712.1
2017-Jul-11 09:45N 47°11' W 086°00'  
Track history (hours):
 
Tides and Currents Weather Stations Pressure Air Temp Water Temp Dewpoint Dewpoint Depression Visibility Wind Speed Wind Dir Waves Ship Positions

Kaministiqua

Last reported at 2017-Jul-18 12:10 UTC. Time now 2017-Jul-20 22:26 UTC.
Position N 45°14' W 074°14'.

Length 223 m; draft 7.9 m.

Type: Ship. MMSI: 316009457.

Date/timePositionNaut miles runAvg speedWind from/ knotsBaromVisibWave heightAir tempDewpointWater temp
2017-Jul-18 12:10N 45°14' W 074°14'8 8.8
2017-Jul-18 11:15N 45°13' W 074°02'2 8.3
2017-Jul-18 11:00N 45°14' W 073°60'4 8.4
2017-Jul-18 10:30N 45°18' W 073°56'1 1.6
2017-Jul-18 10:01N 45°18' W 073°56'1 1.7
2017-Jul-18 09:31N 45°19' W 073°55'0 0.7
2017-Jul-18 09:00N 45°19' W 073°55'0 0.1
2017-Jul-18 08:31N 45°19' W 073°55'3 5.0
2017-Jul-18 08:01N 45°21' W 073°52'5 9.6
2017-Jul-18 07:30N 45°24' W 073°47'4 7.7
2017-Jul-18 07:00N 45°25' W 073°42'3 5.0
2017-Jul-18 06:30N 45°24' W 073°38'2 4.7
2017-Jul-18 06:01N 45°24' W 073°35'1 1.3
2017-Jul-18 05:31N 45°24' W 073°34'1 1.8
2017-Jul-18 05:01N 45°24' W 073°33'3 4.9
2017-Jul-18 04:28N 45°26' W 073°30'3 5.6
2017-Jul-18 03:54N 45°30' W 073°31'  
2017-Jul-15 15:50N 45°30' W 073°31'1 0.8
2017-Jul-15 15:12N 45°30' W 073°31'2 3.1
2017-Jul-15 14:35N 45°28' W 073°30'3 5.6
2017-Jul-15 13:58N 45°25' W 073°32'1 3.0
2017-Jul-15 13:31N 45°24' W 073°34'0 0.5
2017-Jul-15 13:00N 45°24' W 073°34'0 0.6
2017-Jul-15 12:29N 45°24' W 073°35'1 1.6
2017-Jul-15 12:00N 45°24' W 073°36'2 3.8
2017-Jul-15 11:30N 45°24' W 073°38'3 5.2
2017-Jul-15 11:00N 45°25' W 073°42'4 8.4
2017-Jul-15 10:30N 45°24' W 073°48'612.1
2017-Jul-15 10:00N 45°20' W 073°54'1 2.0
2017-Jul-15 09:30N 45°19' W 073°55'1 1.4
2017-Jul-15 09:00N 45°18' W 073°56'0 0.3
2017-Jul-15 08:31N 45°18' W 073°56'1 1.0
2017-Jul-15 08:00N 45°18' W 073°56'3 4.6
2017-Jul-15 07:25N 45°15' W 073°58'3 8.0
2017-Jul-15 07:00N 45°13' W 074°02'510.1
2017-Jul-15 06:30N 45°14' W 074°09'  
2017-Jul-12 07:05N 44°34' W 082°44'112.2
2017-Jul-12 07:00N 44°35' W 082°44'612.2
2017-Jul-12 06:30N 44°41' W 082°47'612.3
2017-Jul-12 06:00N 44°47' W 082°50'612.1
2017-Jul-12 05:30N 44°52' W 082°52'612.1
2017-Jul-12 05:01N 44°58' W 082°55'712.2
2017-Jul-12 04:28N 45°04' W 082°58'1112.4
2017-Jul-12 03:34N 45°15' W 083°03'112.5
2017-Jul-12 03:30N 45°16' W 083°04'612.2
2017-Jul-12 03:01N 45°21' W 083°07'612.3
2017-Jul-12 02:30N 45°26' W 083°13'612.3
2017-Jul-12 02:00N 45°31' W 083°19'612.2
2017-Jul-12 01:30N 45°35' W 083°24'612.0
2017-Jul-12 01:00N 45°39' W 083°30'611.9
2017-Jul-12 00:30N 45°44' W 083°36'612.0
2017-Jul-12 00:00N 45°48' W 083°42'612.1
2017-Jul-11 23:30N 45°52' W 083°48'611.4
2017-Jul-11 23:00N 45°57' W 083°54'510.5
2017-Jul-11 22:30N 46°02' W 083°55'510.6
2017-Jul-11 22:00N 46°05' W 084°01'80 7.8
2017-Jul-11 11:50N 46°59' W 085°27'412.3
2017-Jul-11 11:30N 47°01' W 085°32'1412.2
2017-Jul-11 10:20N 47°07' W 085°51'712.1
2017-Jul-11 09:45N 47°11' W 086°00'  

Dump ship's entire track history